createdAt,value
2019-02-16T00:01:58.702Z,102638.20
2019-02-16T00:04:00.089Z,102634.32
2019-02-16T00:06:01.450Z,102637.72
2019-02-16T00:08:02.874Z,102630.25
2019-02-16T00:10:06.133Z,102635.31
2019-02-16T00:12:07.491Z,102627.66
2019-02-16T00:14:08.921Z,102632.82
2019-02-16T00:16:10.391Z,102631.47
2019-02-16T00:18:11.781Z,102625.14
2019-02-16T00:20:13.174Z,102627.66
2019-02-16T00:22:14.542Z,102622.33
2019-02-16T00:24:15.936Z,102620.29
2019-02-16T00:26:17.323Z,102615.32
2019-02-16T00:28:18.721Z,102619.11
2019-02-16T00:30:20.115Z,102622.72
2019-02-16T00:32:21.476Z,102619.25
2019-02-16T00:34:22.883Z,102616.68
2019-02-16T00:36:24.252Z,102609.71
2019-02-16T00:38:25.647Z,102612.64
2019-02-16T00:40:27.031Z,102605.47
2019-02-16T00:42:28.403Z,102608.12
2019-02-16T00:44:30.369Z,102605.50
2019-02-16T00:46:32.015Z,102598.66
2019-02-16T00:48:33.423Z,102595.24
2019-02-16T00:50:34.778Z,102597.61
2019-02-16T00:52:36.399Z,102598.58
2019-02-16T00:54:37.775Z,102594.31
2019-02-16T00:56:39.133Z,102594.26
2019-02-16T00:58:40.539Z,102589.80
2019-02-16T01:00:41.891Z,102587.22
2019-02-16T01:02:43.247Z,102586.28
2019-02-16T01:04:44.660Z,102588.84
2019-02-16T01:06:46.033Z,102584.61
2019-02-16T01:08:47.407Z,102579.66
2019-02-16T01:10:48.803Z,102575.02
2019-02-16T01:12:50.406Z,102575.44
2019-02-16T01:14:51.802Z,102577.89
2019-02-16T01:16:53.185Z,102577.70
2019-02-16T01:18:54.628Z,102576.20
2019-02-16T01:20:56.331Z,102574.03
2019-02-16T01:22:57.919Z,102576.09
2019-02-16T01:24:59.296Z,102577.26
2019-02-16T01:27:00.657Z,102572.56
2019-02-16T01:29:02.090Z,102571.30
2019-02-16T01:31:03.438Z,102568.43
2019-02-16T01:33:04.957Z,102561.36
2019-02-16T01:35:06.678Z,102559.86
2019-02-16T01:37:08.242Z,102560.58
2019-02-16T01:39:09.685Z,102558.45
2019-02-16T01:41:11.081Z,102556.48
2019-02-16T01:43:12.455Z,102559.91
2019-02-16T01:45:13.816Z,102561.20
2019-02-16T01:47:15.208Z,102561.91
2019-02-16T01:49:16.591Z,102554.39
2019-02-16T01:51:17.981Z,102550.11
2019-02-16T01:53:19.375Z,102555.19
2019-02-16T01:55:20.833Z,102548.78
2019-02-16T01:57:22.208Z,102539.48
2019-02-16T01:59:23.957Z,102540.52
2019-02-16T02:01:25.441Z,102540.70
2019-02-16T02:03:26.817Z,102540.45
2019-02-16T02:05:28.213Z,102538.44
2019-02-16T02:07:29.595Z,102543.77
2019-02-16T02:09:30.985Z,102538.53
2019-02-16T02:11:32.390Z,102537.72
2019-02-16T02:13:33.785Z,102529.91
2019-02-16T02:15:35.137Z,102529.16
2019-02-16T02:17:36.515Z,102525.09
2019-02-16T02:19:37.871Z,102521.50
2019-02-16T02:21:41.370Z,102516.36
2019-02-16T02:23:42.519Z,102514.58
2019-02-16T02:25:43.918Z,102512.44
2019-02-16T02:27:45.318Z,102513.83
2019-02-16T02:29:46.668Z,102509.21
2019-02-16T02:31:48.015Z,102515.12
2019-02-16T02:33:49.403Z,102508.45
2019-02-16T02:35:50.752Z,102516.52
2019-02-16T02:37:52.090Z,102515.41
2019-02-16T02:39:53.489Z,102516.35
2019-02-16T02:41:54.838Z,102508.41
2019-02-16T02:43:56.249Z,102506.69
2019-02-16T02:45:57.583Z,102512.17
2019-02-16T02:47:58.971Z,102512.38
2019-02-16T02:50:00.322Z,102507.81
2019-02-16T02:52:01.914Z,102507.09
2019-02-16T02:54:03.301Z,102510.39
2019-02-16T02:56:04.838Z,102511.28
2019-02-16T02:58:06.239Z,102508.45
2019-02-16T03:00:08.779Z,102502.05
2019-02-16T03:02:10.180Z,102505.25
2019-02-16T03:04:11.904Z,102504.61
2019-02-16T03:06:13.253Z,102500.11
2019-02-16T03:08:14.612Z,102506.53
2019-02-16T03:10:15.983Z,102510.20
2019-02-16T03:12:17.350Z,102505.69
2019-02-16T03:14:18.723Z,102503.54
2019-02-16T03:16:20.110Z,102502.84
2019-02-16T03:18:21.460Z,102503.89
2019-02-16T03:20:22.846Z,102501.67
2019-02-16T03:22:29.900Z,102498.72
2019-02-16T03:24:31.246Z,102494.09
2019-02-16T03:26:40.969Z,102491.53
2019-02-16T03:28:48.077Z,102491.19
2019-02-16T03:31:01.320Z,102491.25
2019-02-16T03:33:14.268Z,102487.84
2019-02-16T03:35:27.388Z,102492.80
2019-02-16T03:37:55.459Z,102484.58
2019-02-16T03:39:56.798Z,102482.98
2019-02-16T03:41:58.142Z,102478.65
2019-02-16T03:43:59.528Z,102481.46
2019-02-16T03:46:00.897Z,102481.00
2019-02-16T03:48:02.309Z,102487.84
2019-02-16T03:50:07.232Z,102483.70
2019-02-16T03:52:14.034Z,102482.38
2019-02-16T03:54:11.979Z,102475.19
2019-02-16T03:56:13.341Z,102477.39
2019-02-16T03:58:14.728Z,102475.77
2019-02-16T04:00:16.100Z,102469.63
2019-02-16T04:02:17.523Z,102474.88
2019-02-16T04:04:18.868Z,102476.48
2019-02-16T04:06:20.216Z,102472.38
2019-02-16T04:08:21.619Z,102472.86
2019-02-16T04:10:22.980Z,102467.41
2019-02-16T04:12:24.371Z,102470.91
2019-02-16T04:14:25.728Z,102468.22
2019-02-16T04:16:27.116Z,102465.05
2019-02-16T04:18:28.479Z,102466.38
2019-02-16T04:20:30.910Z,102462.98
2019-02-16T04:22:32.262Z,102466.27
2019-02-16T04:24:33.652Z,102464.98
2019-02-16T04:26:35.060Z,102459.16
2019-02-16T04:28:36.429Z,102454.85
2019-02-16T04:30:37.810Z,102456.17
2019-02-16T04:32:39.178Z,102451.02
2019-02-16T04:34:40.539Z,102441.35
2019-02-16T04:36:41.926Z,102444.89
2019-02-16T04:38:43.323Z,102442.66
2019-02-16T04:40:44.688Z,102441.38
2019-02-16T04:42:46.051Z,102433.77
2019-02-16T04:44:47.458Z,102441.30
2019-02-16T04:46:49.297Z,102435.00
2019-02-16T04:48:50.653Z,102431.38
2019-02-16T04:50:52.061Z,102434.60
2019-02-16T04:52:53.417Z,102428.17
2019-02-16T04:54:54.801Z,102431.22
2019-02-16T04:56:56.158Z,102427.95
2019-02-16T04:58:57.525Z,102419.23
2019-02-16T05:00:58.913Z,102419.18
2019-02-16T05:03:00.281Z,102412.63
2019-02-16T05:05:01.640Z,102406.55
2019-02-16T05:07:03.037Z,102410.72
2019-02-16T05:09:06.297Z,102406.14
2019-02-16T05:11:07.679Z,102412.66
2019-02-16T05:13:09.113Z,102412.40
2019-02-16T05:15:10.479Z,102405.52
2019-02-16T05:17:11.914Z,102407.58
2019-02-16T05:19:13.307Z,102404.81
2019-02-16T05:21:14.674Z,102396.29
2019-02-16T05:23:16.141Z,102408.06
2019-02-16T05:25:17.540Z,102404.70
2019-02-16T05:27:18.895Z,102407.61
2019-02-16T05:29:20.299Z,102401.11
2019-02-16T05:31:21.671Z,102394.94
2019-02-16T05:33:23.038Z,102390.92
2019-02-16T05:35:24.626Z,102393.70
2019-02-16T05:37:25.994Z,102388.00
2019-02-16T05:39:27.360Z,102391.44
2019-02-16T05:41:28.738Z,102388.72
2019-02-16T05:43:30.187Z,102389.16
2019-02-16T05:45:31.556Z,102385.98
2019-02-16T05:47:32.917Z,102387.36
2019-02-16T05:49:34.302Z,102381.88
2019-02-16T05:51:35.659Z,102382.67
2019-02-16T05:53:37.009Z,102377.98
2019-02-16T05:55:38.418Z,102383.23
2019-02-16T05:57:40.956Z,102374.19
2019-02-16T05:59:42.308Z,102372.91
2019-02-16T06:01:53.217Z,102379.30
2019-02-16T06:03:47.108Z,102381.26
2019-02-16T06:05:48.468Z,102385.09
2019-02-16T06:07:49.836Z,102388.28
2019-02-16T06:09:51.236Z,102384.20
2019-02-16T06:11:52.654Z,102385.33
2019-02-16T06:13:54.059Z,102379.66
2019-02-16T06:15:55.828Z,102376.41
2019-02-16T06:17:57.222Z,102376.66
2019-02-16T06:19:58.602Z,102382.20
2019-02-16T06:22:00.007Z,102379.82
2019-02-16T06:24:01.422Z,102381.59
2019-02-16T06:26:02.814Z,102376.21
2019-02-16T06:28:04.198Z,102379.80
2019-02-16T06:30:07.519Z,102376.32
2019-02-16T06:32:08.870Z,102370.09
2019-02-16T06:34:10.273Z,102374.89
2019-02-16T06:36:13.562Z,102370.20
2019-02-16T06:38:14.957Z,102366.03
2019-02-16T06:40:16.333Z,102370.14
2019-02-16T06:42:17.707Z,102370.63
2019-02-16T06:44:19.100Z,102370.55
2019-02-16T06:46:20.479Z,102373.33
2019-02-16T06:48:21.939Z,102374.65
2019-02-16T06:50:23.347Z,102377.81
2019-02-16T06:52:24.781Z,102378.50
2019-02-16T06:54:26.158Z,102382.23
2019-02-16T06:56:35.121Z,102390.52
2019-02-16T06:58:36.460Z,102388.26
2019-02-16T07:00:37.861Z,102396.05
2019-02-16T07:02:39.287Z,102391.42
2019-02-16T07:04:40.659Z,102394.41
2019-02-16T07:06:42.134Z,102390.51
2019-02-16T07:08:44.265Z,102395.34
2019-02-16T07:10:45.841Z,102397.17
2019-02-16T07:12:47.293Z,102397.98
2019-02-16T07:14:48.684Z,102394.50
2019-02-16T07:17:00.808Z,102401.62
2019-02-16T07:19:04.121Z,102399.69
2019-02-16T07:21:05.522Z,102398.68
2019-02-16T07:23:06.876Z,102387.93
2019-02-16T07:25:08.303Z,102390.25
2019-02-16T07:27:09.722Z,102386.66
2019-02-16T07:29:11.119Z,102391.23
2019-02-16T07:31:12.806Z,102393.81
2019-02-16T07:33:14.164Z,102390.23
2019-02-16T07:35:15.540Z,102386.75
2019-02-16T07:37:17.160Z,102387.27
2019-02-16T07:39:18.552Z,102378.63
2019-02-16T07:41:19.920Z,102378.97
2019-02-16T07:43:39.823Z,102382.57
2019-02-16T07:45:51.968Z,102382.41
2019-02-16T07:48:07.342Z,102383.55
2019-02-16T07:50:10.693Z,102385.84
2019-02-16T07:52:23.098Z,102389.58
2019-02-16T07:54:28.407Z,102389.75
2019-02-16T07:59:46.173Z,102384.45
2019-02-16T08:02:13.776Z,102382.37
2019-02-16T08:04:34.020Z,102383.50
2019-02-16T08:06:37.330Z,102382.50
2019-02-16T08:08:49.518Z,102382.44
2019-02-16T08:10:55.812Z,102383.08
2019-02-16T08:13:01.997Z,102374.10
2019-02-16T08:15:15.572Z,102377.47
2019-02-16T08:17:35.862Z,102375.47
2019-02-16T08:19:54.349Z,102372.20
2019-02-16T08:21:57.622Z,102372.03
2019-02-16T08:24:03.696Z,102370.86
2019-02-16T08:26:06.936Z,102363.55
2019-02-16T08:28:10.210Z,102364.81
2019-02-16T08:30:13.660Z,102355.05
2019-02-16T08:32:19.925Z,102354.34
2019-02-16T08:34:26.070Z,102344.18
2019-02-16T08:36:35.431Z,102344.97
2019-02-16T08:38:57.000Z,102343.42
2019-02-16T08:41:03.102Z,102347.76
2019-02-16T08:43:09.319Z,102344.80
2019-02-16T08:45:15.502Z,102346.59
2019-02-16T08:47:24.971Z,102349.32
2019-02-16T08:49:33.955Z,102344.77
2019-02-16T08:51:37.242Z,102345.75
2019-02-16T08:53:49.627Z,102346.21
2019-02-16T08:55:51.621Z,102343.34
2019-02-16T08:58:01.005Z,102340.21
2019-02-16T09:00:18.705Z,102340.87
2019-02-16T09:02:27.925Z,102336.55
2019-02-16T09:04:31.208Z,102326.41
2019-02-16T09:06:38.198Z,102327.24
2019-02-16T09:08:50.564Z,102322.75
2019-02-16T09:11:06.292Z,102324.67
2019-02-16T09:13:09.515Z,102315.45
2019-02-16T09:15:12.959Z,102314.91
2019-02-16T09:17:19.065Z,102315.28
2019-02-16T09:19:40.699Z,102314.45
2019-02-16T09:21:55.794Z,102313.41
2019-02-16T09:24:08.307Z,102317.11
2019-02-16T09:26:14.735Z,102311.64
2019-02-16T09:28:34.761Z,102310.39
2019-02-16T09:30:47.240Z,102315.50
2019-02-16T09:32:50.614Z,102308.81
2019-02-16T09:35:00.261Z,102311.16
2019-02-16T09:37:03.582Z,102316.91
2019-02-16T09:39:16.513Z,102319.96
2019-02-16T09:41:19.792Z,102317.32
2019-02-16T09:43:41.305Z,102310.87
2019-02-16T09:45:59.624Z,102310.47
2019-02-16T09:48:02.910Z,102302.96
2019-02-16T09:50:22.188Z,102307.08
2019-02-16T09:52:42.395Z,102302.27
2019-02-16T09:55:02.252Z,102304.30
2019-02-16T09:57:17.894Z,102305.39
2019-02-16T09:59:24.134Z,102304.67
2019-02-16T10:01:27.485Z,102305.55
2019-02-16T10:03:30.799Z,102304.67
2019-02-16T10:05:34.067Z,102297.64
2019-02-16T10:07:49.635Z,102298.20
2019-02-16T10:10:01.984Z,102292.38
2019-02-16T10:12:05.277Z,102294.33
2019-02-16T10:14:14.570Z,102284.05
2019-02-16T10:16:20.827Z,102291.32
2019-02-16T10:18:24.100Z,102286.75
2019-02-16T10:20:42.351Z,102292.20
2019-02-16T10:22:51.649Z,102280.16
2019-02-16T10:25:11.664Z,102275.12
2019-02-16T10:27:14.945Z,102278.03
2019-02-16T10:29:18.255Z,102273.01
2019-02-16T10:31:39.748Z,102270.89
2019-02-16T10:33:45.655Z,102273.43
2019-02-16T10:35:58.155Z,102273.87
2019-02-16T10:38:18.073Z,102270.52
2019-02-16T10:40:27.256Z,102272.98
2019-02-16T10:42:39.287Z,102265.03
2019-02-16T10:44:45.481Z,102260.27
2019-02-16T10:46:48.888Z,102260.63
2019-02-16T10:48:54.813Z,102267.66
2019-02-16T10:50:58.132Z,102268.38
2019-02-16T10:53:01.397Z,102260.22
2019-02-16T10:55:18.224Z,102257.99
2019-02-16T10:57:36.442Z,102256.23
2019-02-16T10:59:56.386Z,102251.25
2019-02-16T11:01:59.993Z,102253.84
2019-02-16T11:04:11.999Z,102257.42
2019-02-16T11:06:21.298Z,102250.81
2019-02-16T11:08:33.545Z,102254.28
2019-02-16T11:10:38.711Z,102252.96
2019-02-16T11:12:42.033Z,102247.83
2019-02-16T11:14:45.315Z,102245.75
2019-02-16T11:17:03.795Z,102238.42
2019-02-16T11:19:07.087Z,102238.49
2019-02-16T11:21:28.791Z,102238.45
2019-02-16T11:23:32.087Z,102233.86
2019-02-16T11:25:51.998Z,102236.30
2019-02-16T11:27:55.260Z,102224.81
2019-02-16T11:30:01.460Z,102227.47
2019-02-16T11:32:04.721Z,102217.51
2019-02-16T11:34:18.877Z,102220.30
2019-02-16T11:36:31.069Z,102219.00
2019-02-16T11:38:37.024Z,102216.87
2019-02-16T11:40:40.282Z,102217.41
2019-02-16T11:42:52.752Z,102213.70
2019-02-16T11:45:10.978Z,102222.56
2019-02-16T11:47:17.112Z,102232.20
2019-02-16T11:49:20.458Z,102232.52
2019-02-16T11:51:39.036Z,102234.89
2019-02-16T11:54:00.692Z,102235.18
2019-02-16T11:56:03.988Z,102231.45
2019-02-16T11:58:16.460Z,102233.32
2019-02-16T12:00:28.719Z,102223.17
2019-02-16T12:02:39.698Z,102221.97
2019-02-16T12:04:40.373Z,102223.47
2019-02-16T12:06:49.513Z,102222.08
2019-02-16T12:08:58.515Z,102214.52
2019-02-16T12:11:04.499Z,102224.77
2019-02-16T12:13:07.823Z,102225.41
2019-02-16T12:15:11.118Z,102222.23
2019-02-16T12:17:14.575Z,102217.30
2019-02-16T12:19:34.673Z,102214.29
2019-02-16T12:21:43.670Z,102203.24
2019-02-16T12:23:49.859Z,102203.23
2019-02-16T12:25:59.102Z,102197.41
2019-02-16T12:28:10.413Z,102194.12
2019-02-16T12:30:22.667Z,102195.11
2019-02-16T12:32:40.968Z,102191.37
2019-02-16T12:34:44.244Z,102190.48
2019-02-16T12:36:47.562Z,102194.98
2019-02-16T12:39:05.836Z,102190.57
2019-02-16T12:41:09.156Z,102186.37
2019-02-16T12:43:24.584Z,102180.28
2019-02-16T12:45:50.969Z,102185.91
2019-02-16T12:47:48.290Z,102192.17
2019-02-16T12:49:54.208Z,102194.42
2019-02-16T12:52:00.223Z,102195.48
2019-02-16T12:54:20.313Z,102191.68
2019-02-16T12:56:38.621Z,102184.50
2019-02-16T12:58:42.013Z,102181.39
2019-02-16T13:00:45.360Z,102183.89
2019-02-16T13:02:51.347Z,102177.16
2019-02-16T13:05:11.350Z,102177.13
2019-02-16T13:07:23.318Z,102178.44
2019-02-16T13:09:44.969Z,102183.09
2019-02-16T13:11:48.263Z,102184.09
2019-02-16T13:14:06.771Z,102183.38
2019-02-16T13:16:26.469Z,102182.89
2019-02-16T13:18:29.967Z,102181.64
2019-02-16T13:20:33.243Z,102178.95
2019-02-16T13:22:39.044Z,102169.80
2019-02-16T13:24:45.258Z,102170.05
2019-02-16T13:26:51.411Z,102170.62
2019-02-16T13:29:00.404Z,102172.44
2019-02-16T13:31:09.557Z,102167.86
2019-02-16T13:33:16.351Z,102172.08
2019-02-16T13:35:28.646Z,102173.83
2019-02-16T13:37:50.193Z,102172.31
2019-02-16T13:39:53.552Z,102175.77
2019-02-16T13:42:02.579Z,102166.59
2019-02-16T13:44:05.963Z,102166.73
2019-02-16T13:46:21.763Z,102164.27
2019-02-16T13:48:25.167Z,102171.02
2019-02-16T13:50:31.471Z,102165.95
2019-02-16T13:52:37.609Z,102166.92
2019-02-16T13:54:40.885Z,102161.92
2019-02-16T13:56:44.443Z,102163.42
2019-02-16T13:58:50.695Z,102166.02
2019-02-16T14:01:00.017Z,102158.60
2019-02-16T14:03:03.341Z,102157.83
2019-02-16T14:05:06.744Z,102149.42
2019-02-16T14:07:10.235Z,102149.30
2019-02-16T14:09:28.809Z,102143.32
2019-02-16T14:11:35.115Z,102143.84
2019-02-16T14:13:38.634Z,102141.51
2019-02-16T14:15:41.970Z,102143.37
2019-02-16T14:17:45.575Z,102143.12
2019-02-16T14:19:46.953Z,102137.75
2019-02-16T14:21:48.757Z,102137.39
2019-02-16T14:23:50.937Z,102129.34
2019-02-16T14:25:54.385Z,102122.03
2019-02-16T14:27:56.898Z,102119.94
2019-02-16T14:29:59.034Z,102116.60
2019-02-16T14:32:00.604Z,102122.57
2019-02-16T14:34:02.212Z,102115.48
2019-02-16T14:36:03.771Z,102109.67
2019-02-16T14:38:07.414Z,102107.84
2019-02-16T14:40:09.158Z,102106.77
2019-02-16T14:42:10.816Z,102102.30
2019-02-16T14:44:12.898Z,102111.93
2019-02-16T14:46:14.847Z,102108.52
2019-02-16T14:48:19.202Z,102104.95
2019-02-16T14:50:20.684Z,102103.72
2019-02-16T14:52:22.238Z,102102.17
2019-02-16T14:54:23.643Z,102097.39
2019-02-16T14:56:25.028Z,102096.81
2019-02-16T14:58:26.433Z,102095.84
2019-02-16T15:00:27.819Z,102097.30
2019-02-16T15:02:29.225Z,102089.42
2019-02-16T15:04:31.144Z,102089.91
2019-02-16T15:06:32.559Z,102084.06
2019-02-16T15:08:33.946Z,102087.99
2019-02-16T15:10:35.337Z,102082.94
2019-02-16T15:12:36.715Z,102086.46
2019-02-16T15:14:38.154Z,102077.76
2019-02-16T15:16:39.515Z,102078.44
2019-02-16T15:18:41.117Z,102080.52
2019-02-16T15:20:42.478Z,102080.41
2019-02-16T15:22:43.875Z,102085.92
2019-02-16T15:24:45.324Z,102082.31
2019-02-16T15:26:46.685Z,102089.16
2019-02-16T15:28:48.045Z,102087.11
2019-02-16T15:30:49.465Z,102075.28
2019-02-16T15:32:50.843Z,102070.37
2019-02-16T15:34:52.240Z,102067.93
2019-02-16T15:36:53.617Z,102069.48
2019-02-16T15:38:54.992Z,102075.09
2019-02-16T15:40:56.421Z,102073.89
2019-02-16T15:42:57.847Z,102074.74
2019-02-16T15:44:59.257Z,102068.88
2019-02-16T15:47:00.658Z,102071.35
2019-02-16T15:49:02.090Z,102066.48
2019-02-16T15:51:03.704Z,102068.36
2019-02-16T15:53:05.317Z,102069.03
2019-02-16T15:55:13.592Z,102071.16
2019-02-16T15:57:15.396Z,102068.26
2019-02-16T15:59:16.818Z,102073.20
2019-02-16T16:01:18.217Z,102068.25
2019-02-16T16:03:19.646Z,102065.07
2019-02-16T16:05:21.006Z,102063.11
2019-02-16T16:07:22.366Z,102059.11
2019-02-16T16:09:28.776Z,102061.42
2019-02-16T16:11:32.126Z,102059.42
2019-02-16T16:13:35.386Z,102064.37
2019-02-16T16:15:50.646Z,102063.92
2019-02-16T16:17:56.800Z,102066.70
2019-02-16T16:20:02.723Z,102063.45
2019-02-16T16:22:08.706Z,102062.67
2019-02-16T16:24:17.906Z,102063.31
2019-02-16T16:26:39.519Z,102062.12
2019-02-16T16:28:42.841Z,102062.70
2019-02-16T16:30:46.119Z,102065.94
2019-02-16T16:32:58.339Z,102065.12
2019-02-16T16:35:04.317Z,102065.95
2019-02-16T16:37:07.851Z,102062.45
2019-02-16T16:39:14.063Z,102069.52
2019-02-16T16:41:26.199Z,102064.50
2019-02-16T16:43:32.342Z,102068.48
2019-02-16T16:45:41.825Z,102073.38
2019-02-16T16:47:49.951Z,102073.83
2019-02-16T16:49:59.008Z,102083.28
2019-02-16T16:52:04.978Z,102082.25
2019-02-16T16:54:10.985Z,102084.89
2019-02-16T16:56:16.955Z,102081.11
2019-02-16T16:58:20.267Z,102085.93
2019-02-16T17:00:23.554Z,102086.18
2019-02-16T17:02:38.778Z,102091.26
2019-02-16T17:04:50.985Z,102092.98
2019-02-16T17:06:54.263Z,102090.14
2019-02-16T17:09:03.555Z,102091.13
2019-02-16T17:11:09.515Z,102098.13
2019-02-16T17:13:25.015Z,102095.33
2019-02-16T17:15:42.355Z,102100.19
2019-02-16T17:17:48.527Z,102099.01
2019-02-16T17:19:57.806Z,102106.68
2019-02-16T17:22:07.046Z,102106.63
2019-02-16T17:24:28.693Z,102105.34
2019-02-16T17:26:37.838Z,102105.63
2019-02-16T17:28:54.235Z,102113.55
2019-02-16T17:30:57.515Z,102109.92
2019-02-16T17:33:12.815Z,102104.27
2019-02-16T17:35:16.162Z,102107.17
2019-02-16T17:37:25.345Z,102111.39
2019-02-16T17:39:28.700Z,102117.34
2019-02-16T17:41:44.205Z,102109.46
2019-02-16T17:43:53.416Z,102111.34
2019-02-16T17:46:13.504Z,102113.28
2019-02-16T17:48:33.394Z,102110.59
2019-02-16T17:50:36.705Z,102111.56
2019-02-16T17:52:51.993Z,102109.44
2019-02-16T17:55:07.211Z,102116.59
2019-02-16T17:57:10.603Z,102117.51
2019-02-16T17:59:13.879Z,102119.67
2019-02-16T18:01:23.467Z,102114.41
2019-02-16T18:03:26.821Z,102111.28
2019-02-16T18:05:30.115Z,102116.81
2019-02-16T18:07:33.420Z,102116.20
2019-02-16T18:09:49.033Z,102111.63
2019-02-16T18:12:07.535Z,102114.11
2019-02-16T18:14:10.822Z,102114.52
2019-02-16T18:16:17.144Z,102116.91
2019-02-16T18:18:20.416Z,102108.94
2019-02-16T18:20:29.799Z,102111.51
2019-02-16T18:22:35.788Z,102106.73
2019-02-16T18:25:00.183Z,102107.25
2019-02-16T18:27:21.734Z,102108.78
2019-02-16T18:29:40.029Z,102104.07
2019-02-16T18:31:46.042Z,102102.66
2019-02-16T18:34:04.551Z,102101.14
2019-02-16T18:36:07.893Z,102106.77
2019-02-16T18:38:11.143Z,102101.12
2019-02-16T18:40:14.527Z,102106.78
2019-02-16T18:42:24.180Z,102104.00
2019-02-16T18:44:27.458Z,102109.14
2019-02-16T18:46:33.765Z,102111.72
2019-02-16T18:48:52.348Z,102109.11
2019-02-16T18:51:01.654Z,102116.27
2019-02-16T18:53:05.023Z,102118.00
2019-02-16T18:55:10.901Z,102114.20
2019-02-16T18:57:16.229Z,102116.50
2019-02-16T18:59:28.527Z,102119.80
2019-02-16T19:01:34.445Z,102122.50
2019-02-16T19:03:55.769Z,102119.67
2019-02-16T19:06:14.368Z,102123.73
2019-02-16T19:08:23.679Z,102123.21
2019-02-16T19:10:26.961Z,102135.76
2019-02-16T19:12:33.259Z,102129.09
2019-02-16T19:14:54.886Z,102131.74
2019-02-16T19:17:01.281Z,102129.97
2019-02-16T19:19:16.638Z,102136.80
2019-02-16T19:21:19.940Z,102137.02
2019-02-16T19:23:26.130Z,102134.22
2019-02-16T19:25:32.404Z,102132.84
2019-02-16T19:27:41.816Z,102140.95
2019-02-16T19:29:56.935Z,102134.04
2019-02-16T19:32:00.214Z,102134.54
2019-02-16T19:34:18.754Z,102135.29
2019-02-16T19:36:22.039Z,102137.33
2019-02-16T19:38:40.559Z,102141.72
2019-02-16T19:40:46.841Z,102135.63
2019-02-16T19:42:52.708Z,102136.19
2019-02-16T19:45:04.835Z,102138.36
2019-02-16T19:47:17.119Z,102138.76
2019-02-16T19:49:23.344Z,102135.23
2019-02-16T19:51:53.646Z,102141.98
2019-02-16T19:54:14.932Z,102140.75
2019-02-16T19:56:24.098Z,102142.36
2019-02-16T19:58:27.416Z,102144.92
2019-02-16T20:00:33.359Z,102145.81
2019-02-16T20:02:54.975Z,102133.19
2019-02-16T20:04:58.256Z,102143.04
2019-02-16T20:07:18.036Z,102135.75
2019-02-16T20:09:30.258Z,102135.25
2019-02-16T20:11:36.407Z,102133.28
2019-02-16T20:13:56.446Z,102138.05
2019-02-16T20:15:59.765Z,102139.33
2019-02-16T20:18:05.745Z,102139.01
2019-02-16T20:20:11.945Z,102138.84
2019-02-16T20:22:27.249Z,102145.37
2019-02-16T20:24:42.805Z,102141.79
2019-02-16T20:26:46.069Z,102142.59
2019-02-16T20:29:06.085Z,102147.80
2019-02-16T20:31:15.281Z,102145.70
2019-02-16T20:33:27.281Z,102143.73
2019-02-16T20:35:33.177Z,102147.97
2019-02-16T20:37:39.717Z,102150.25
2019-02-16T20:39:58.313Z,102150.09
2019-02-16T20:42:18.377Z,102144.89
2019-02-16T20:44:40.071Z,102147.34
2019-02-16T20:46:43.345Z,102147.16
2019-02-16T20:48:49.341Z,102142.77
2019-02-16T20:50:58.525Z,102147.30
2019-02-16T20:53:13.793Z,102151.87
2019-02-16T20:55:23.009Z,102147.16
2019-02-16T20:57:26.280Z,102145.51
2019-02-16T20:59:32.268Z,102151.34
2019-02-16T21:01:50.631Z,102150.06
2019-02-16T21:04:02.735Z,102148.42
2019-02-16T21:06:11.732Z,102150.80
2019-02-16T21:08:20.838Z,102147.69
2019-02-16T21:10:30.210Z,102144.11
2019-02-16T21:12:39.607Z,102147.20
2019-02-16T21:17:42.968Z,102140.47
2019-02-16T21:23:34.504Z,102097.09
2019-02-16T21:26:15.647Z,102105.71
2019-02-16T21:31:45.753Z,102153.94
2019-02-16T21:37:09.668Z,102156.39
2019-02-16T21:42:40.165Z,102162.20
2019-02-16T21:45:14.481Z,102104.79
2019-02-16T21:47:55.617Z,102112.20
2019-02-16T21:50:36.813Z,102116.66
2019-02-16T21:53:21.334Z,102156.11
2019-02-16T22:01:41.114Z,102113.92
2019-02-16T22:04:22.252Z,102114.98
2019-02-16T22:07:05.341Z,102118.09
2019-02-16T22:09:26.611Z,102162.11
2019-02-16T22:12:06.771Z,102164.19
2019-02-16T22:14:23.014Z,102171.30
2019-02-16T22:16:24.398Z,102169.13
2019-02-16T22:18:25.783Z,102168.05
2019-02-16T22:20:27.211Z,102165.45
2019-02-16T22:22:28.581Z,102169.23
2019-02-16T22:24:29.967Z,102175.02
2019-02-16T22:26:31.664Z,102173.20
2019-02-16T22:28:33.042Z,102174.30
2019-02-16T22:30:34.466Z,102174.59
2019-02-16T22:32:35.869Z,102180.58
2019-02-16T22:34:39.136Z,102177.17
2019-02-16T22:36:40.591Z,102176.98
2019-02-16T22:38:43.852Z,102177.80
2019-02-16T22:40:45.376Z,102175.59
2019-02-16T22:42:46.756Z,102181.26
2019-02-16T22:44:48.704Z,102177.16
2019-02-16T22:46:50.133Z,102178.44
2019-02-16T22:48:51.514Z,102182.39
2019-02-16T22:50:52.949Z,102178.77
2019-02-16T22:52:55.240Z,102180.16
2019-02-16T22:54:56.595Z,102178.22
2019-02-16T22:56:59.626Z,102180.13
2019-02-16T22:59:01.183Z,102179.81
2019-02-16T23:01:04.869Z,102182.52
2019-02-16T23:03:06.537Z,102186.61
2019-02-16T23:05:07.969Z,102183.12
2019-02-16T23:07:09.384Z,102187.27
2019-02-16T23:09:12.814Z,102185.13
2019-02-16T23:11:14.176Z,102193.39
2019-02-16T23:13:15.647Z,102195.08
2019-02-16T23:15:17.059Z,102197.54
2019-02-16T23:17:18.436Z,102202.86
2019-02-16T23:19:19.939Z,102199.25
2019-02-16T23:21:21.698Z,102207.92
2019-02-16T23:23:23.034Z,102205.61
2019-02-16T23:25:24.474Z,102200.41
2019-02-16T23:27:25.832Z,102202.55
2019-02-16T23:29:27.204Z,102198.41
2019-02-16T23:31:28.622Z,102202.38
2019-02-16T23:33:29.996Z,102198.61
2019-02-16T23:35:31.370Z,102196.77
2019-02-16T23:37:32.797Z,102194.91
2019-02-16T23:39:34.168Z,102195.73
2019-02-16T23:41:35.667Z,102196.63
2019-02-16T23:43:37.043Z,102200.41
2019-02-16T23:45:38.473Z,102199.37
2019-02-16T23:47:41.741Z,102203.65
2019-02-16T23:49:43.125Z,102199.15
2019-02-16T23:51:44.533Z,102210.85
2019-02-16T23:53:46.001Z,102201.84
2019-02-16T23:55:47.336Z,102201.70
2019-02-16T23:57:51.842Z,102205.01
2019-02-16T23:59:53.250Z,102206.42
